Roque Bluffs, Maine
Current Conditions -  °F | °C
As of 12:55 AM on Thursday 27 Nov 2014 (Local Time) from KBHB Reporting Station
Overcast Overcast  
Wind Chill: 19°   Ceiling: 800
Heat Index: 32°   Visibility: 3mi
Dew Point: 32°   Wind: 23mph
Humidity: 100%   Direction: 10°N
Pressure: 29.64"   Gusts: 35mph
Location:  44.8808°N, 67.668°W
Report Text: KBHB 270555Z AUTO 01020G30KT 3SM BKN008 OVC012 00/00 A2964 RMK AO1 P0002 60029 10010 20000 57054
Loading
Personal Weather Stations






























Interactive Weather Map New forecast layout! Learn more

10-Day Weather Forecast

Advertisements
Track Severe Weather on mobile